Time;durP1;ratioP1;P1;durP2;ratioP2;P2;SDS_P1;SDS_P2;PMS_P1;PMS_P2;Temp;Humidity;BMP_temperature;BMP_pressure;BME280_temperature;BME280_humidity;BME280_pressure;Samples;Min_cycle;Max_cycle;Signal;HPM_P1;HPM_P2
2023/01/03 00:01:53;;;;;;;16.53;8.67;;;10.80;99.90;;;;;;5034076;28;20199;-87
2023/01/03 00:04:21;;;;;;;15.00;8.43;;;10.70;99.90;;;;;;5033248;28;20246;-82
2023/01/03 00:06:50;;;;;;;14.90;8.17;;;10.70;99.90;;;;;;5033618;28;20625;-81
2023/01/03 00:09:21;;;;;;;17.40;8.50;;;10.80;99.90;;;;;;5033673;28;20195;-88
2023/01/03 00:14:39;;;;;;;17.83;8.40;;;10.70;99.90;;;;;;5033274;28;20195;-88
2023/01/03 00:17:07;;;;;;;16.47;7.93;;;10.70;99.90;;;;;;5033971;28;20566;-89
2023/01/03 00:19:42;;;;;;;16.13;7.93;;;10.70;99.90;;;;;;5035282;28;20628;-88
2023/01/03 00:22:11;;;;;;;18.03;8.17;;;10.60;99.90;;;;;;5035235;28;20664;-83
2023/01/03 00:24:39;;;;;;;16.37;8.00;;;10.70;99.90;;;;;;5037252;28;20314;-81
2023/01/03 00:27:06;;;;;;;14.63;8.30;;;10.70;99.90;;;;;;5049638;28;20195;-85
2023/01/03 00:29:34;;;;;;;14.00;7.43;;;10.70;99.90;;;;;;5036766;28;20200;-89
2023/01/03 00:32:04;;;;;;;17.37;8.17;;;10.70;99.90;;;;;;5033267;28;20219;-88
2023/01/03 00:34:33;;;;;;;17.70;8.20;;;10.80;99.90;;;;;;5053860;28;20222;-88
2023/01/03 00:37:03;;;;;;;17.90;8.37;;;10.70;99.90;;;;;;5052428;28;20579;-83
2023/01/03 00:39:32;;;;;;;14.47;8.43;;;10.70;99.90;;;;;;5036988;28;20288;-81
2023/01/03 00:41:59;;;;;;;16.67;8.13;;;10.70;99.90;;;;;;5050652;28;20191;-84
2023/01/03 00:44:26;;;;;;;13.27;7.67;;;10.80;99.90;;;;;;5041550;28;20653;-81
2023/01/03 00:46:54;;;;;;;15.03;7.33;;;10.70;99.90;;;;;;5040977;28;20290;-85
2023/01/03 00:49:21;;;;;;;17.00;7.90;;;10.70;99.90;;;;;;5052171;28;20191;-80
2023/01/03 00:51:48;;;;;;;16.80;8.80;;;10.60;99.90;;;;;;5052280;28;20222;-81
2023/01/03 00:54:16;;;;;;;15.80;8.50;;;10.70;99.90;;;;;;5048265;28;20187;-88
2023/01/03 00:56:45;;;;;;;14.43;7.70;;;10.70;99.90;;;;;;5049104;28;20202;-79
2023/01/03 00:59:17;;;;;;;16.70;8.53;;;10.70;99.90;;;;;;5033303;28;20186;-84
2023/01/03 01:01:50;;;;;;;16.57;7.83;;;10.60;99.90;;;;;;5042380;28;20222;-84
2023/01/03 01:04:25;;;;;;;18.10;8.20;;;10.60;99.90;;;;;;5032490;28;20194;-81
2023/01/03 01:06:55;;;;;;;15.83;7.77;;;10.60;99.90;;;;;;5015557;28;20226;-81
2023/01/03 01:09:26;;;;;;;18.10;7.90;;;10.70;99.90;;;;;;5032128;28;20199;-80
2023/01/03 01:11:54;;;;;;;17.33;7.97;;;10.70;99.90;;;;;;5048730;28;20211;-82
2023/01/03 01:14:24;;;;;;;15.67;8.37;;;10.60;99.90;;;;;;5033071;28;20227;-85
2023/01/03 01:16:58;;;;;;;16.93;7.90;;;10.60;99.90;;;;;;5033576;28;20230;-91
2023/01/03 01:19:32;;;;;;;16.00;7.60;;;10.60;99.90;;;;;;5032398;28;20218;-80
2023/01/03 01:21:59;;;;;;;16.70;8.20;;;10.60;99.90;;;;;;5037840;28;20636;-84
2023/01/03 01:24:27;;;;;;;15.40;8.00;;;10.60;99.90;;;;;;5033615;28;20226;-91
2023/01/03 01:26:54;;;;;;;15.97;7.80;;;10.60;99.90;;;;;;5001333;28;20275;-88
2023/01/03 01:29:25;;;;;;;14.87;8.23;;;10.60;99.90;;;;;;5032563;28;20637;-83
2023/01/03 01:31:52;;;;;;;15.63;8.50;;;10.60;99.90;;;;;;5040159;28;20233;-86
2023/01/03 01:34:19;;;;;;;13.73;7.83;;;10.70;99.90;;;;;;5040884;28;20587;-87
2023/01/03 01:36:47;;;;;;;16.47;8.13;;;10.70;99.90;;;;;;5033008;28;20200;-90
2023/01/03 01:39:17;;;;;;;16.37;8.03;;;10.60;99.90;;;;;;5020205;28;20275;-86
2023/01/03 01:44:47;;;;;;;13.83;7.73;;;10.70;99.90;;;;;;5013020;28;20638;-89
2023/01/03 01:47:43;;;;;;;15.60;7.53;;;10.60;99.90;;;;;;5029381;28;20296;-91
2023/01/03 01:50:24;;;;;;;15.40;7.50;;;10.70;99.90;;;;;;5029282;28;20702;-86
2023/01/03 01:52:58;;;;;;;14.33;7.37;;;10.70;99.90;;;;;;5013935;28;20222;-85
2023/01/03 01:55:30;;;;;;;17.00;7.77;;;10.70;99.90;;;;;;5016813;28;20199;-80
2023/01/03 01:58:00;;;;;;;14.13;7.70;;;10.80;99.90;;;;;;5014304;28;20235;-85
2023/01/03 02:00:32;;;;;;;14.67;7.73;;;10.70;99.90;;;;;;5012724;28;20284;-90
2023/01/03 02:03:00;;;;;;;16.30;7.60;;;10.80;99.90;;;;;;5020530;28;20196;-89
2023/01/03 02:05:28;;;;;;;16.93;7.53;;;10.80;99.90;;;;;;5014707;28;20246;-90
2023/01/03 02:07:55;;;;;;;14.80;7.07;;;10.80;99.90;;;;;;5000399;28;20222;-90
2023/01/03 02:10:57;;;;;;;16.77;7.20;;;10.80;99.90;;;;;;5021936;28;20646;-80
2023/01/03 02:13:30;;;;;;;15.63;7.30;;;10.90;99.90;;;;;;5032192;28;20245;-87
2023/01/03 02:16:16;;;;;;;15.00;7.10;;;10.90;99.90;;;;;;5016753;28;20317;-88
2023/01/03 02:19:17;;;;;;;15.73;6.97;;;11.00;99.90;;;;;;5033194;28;20206;-87
2023/01/03 02:22:01;;;;;;;14.20;6.77;;;11.00;99.90;;;;;;5016376;28;20619;-90
2023/01/03 02:24:53;;;;;;;14.93;7.50;;;11.00;99.90;;;;;;5015986;28;20700;-89
2023/01/03 02:27:35;;;;;;;14.87;7.70;;;11.10;99.90;;;;;;5015847;28;20552;-84
2023/01/03 02:30:39;;;;;;;15.17;6.67;;;11.20;99.90;;;;;;5016121;28;20192;-80
2023/01/03 02:33:30;;;;;;;14.87;6.97;;;11.10;99.90;;;;;;5032521;28;20212;-90
2023/01/03 02:36:06;;;;;;;15.83;7.20;;;11.10;99.90;;;;;;5016481;28;20204;-89
2023/01/03 02:38:45;;;;;;;16.63;7.03;;;11.20;99.90;;;;;;5015488;28;20653;-78
2023/01/03 02:41:19;;;;;;;16.10;7.33;;;11.10;99.90;;;;;;5020676;28;20675;-88
2023/01/03 02:44:10;;;;;;;16.77;7.03;;;11.10;99.90;;;;;;5018207;28;20191;-86
2023/01/03 02:46:55;;;;;;;11.43;6.57;;;11.10;99.90;;;;;;5015384;28;20227;-81
2023/01/03 02:49:31;;;;;;;15.47;7.43;;;11.10;99.90;;;;;;5015906;28;20195;-81
2023/01/03 02:52:04;;;;;;;14.33;6.97;;;11.20;99.90;;;;;;5015863;28;20223;-83
2023/01/03 02:54:45;;;;;;;15.67;7.60;;;11.20;99.90;;;;;;5016302;28;20183;-86
2023/01/03 02:57:21;;;;;;;16.00;7.33;;;11.20;99.90;;;;;;5015012;28;20535;-84
2023/01/03 02:59:59;;;;;;;13.50;6.93;;;11.10;99.90;;;;;;5031433;28;20610;-88
2023/01/03 03:02:31;;;;;;;11.73;7.00;;;11.10;99.90;;;;;;5038128;28;20206;-90
2023/01/03 03:05:07;;;;;;;14.53;7.10;;;11.10;99.90;;;;;;5035889;28;20342;-88
2023/01/03 03:07:38;;;;;;;11.63;6.77;;;11.10;99.90;;;;;;5035750;28;20210;-86
2023/01/03 03:13:14;;;;;;;15.37;7.30;;;11.00;99.90;;;;;;5050845;28;20280;-87
2023/01/03 03:16:47;;;;;;;13.87;6.77;;;11.00;99.90;;;;;;5041113;28;20206;-89
2023/01/03 03:25:29;;;;;;;12.63;6.70;;;10.80;99.90;;;;;;5035163;28;20722;-88
2023/01/03 03:30:58;;;;;;;12.57;6.70;;;10.70;99.90;;;;;;5035354;28;20718;-87
2023/01/03 03:33:32;;;;;;;12.57;6.70;;;10.70;99.90;;;;;;5035529;28;20220;-88
2023/01/03 03:36:11;;;;;;;13.47;7.00;;;10.60;99.90;;;;;;5035510;28;20203;-88
2023/01/03 03:38:43;;;;;;;13.20;6.50;;;10.60;99.90;;;;;;5051415;28;20285;-87
2023/01/03 03:47:59;;;;;;;11.97;6.17;;;10.50;99.90;;;;;;5050418;28;20563;-87
2023/01/03 03:50:52;;;;;;;11.60;6.00;;;10.50;99.90;;;;;;5035203;28;20657;-82
2023/01/03 03:53:26;;;;;;;11.53;6.13;;;10.40;99.90;;;;;;5038182;28;20270;-82
2023/01/03 03:56:02;;;;;;;13.23;6.47;;;10.30;99.90;;;;;;5050588;28;20199;-87
2023/01/03 03:58:36;;;;;;;12.90;6.50;;;10.20;99.90;;;;;;5034696;28;20214;-85
2023/01/03 04:01:05;;;;;;;11.13;5.80;;;10.30;99.90;;;;;;5034605;28;20195;-81
2023/01/03 04:03:34;;;;;;;10.27;5.67;;;10.20;99.90;;;;;;5049743;28;20192;-83
2023/01/03 04:06:08;;;;;;;11.00;5.50;;;10.10;99.90;;;;;;5033466;28;20203;-89
2023/01/03 04:08:38;;;;;;;10.00;5.70;;;10.10;99.90;;;;;;5035559;28;20213;-82
2023/01/03 04:11:06;;;;;;;10.33;5.83;;;10.00;99.90;;;;;;5033783;28;20200;-82
2023/01/03 04:13:35;;;;;;;9.97;5.40;;;10.00;99.90;;;;;;5034806;28;20270;-83
2023/01/03 04:16:03;;;;;;;9.30;5.60;;;10.00;99.90;;;;;;5035817;28;20571;-82
2023/01/03 04:18:30;;;;;;;9.13;5.40;;;10.10;99.90;;;;;;5034940;28;20218;-88
2023/01/03 04:20:58;;;;;;;11.87;5.13;;;10.10;99.90;;;;;;5034733;28;20649;-85
2023/01/03 04:23:27;;;;;;;11.67;5.20;;;10.10;99.90;;;;;;5034154;28;20211;-85
2023/01/03 04:25:55;;;;;;;9.80;4.93;;;10.10;99.90;;;;;;5017111;28;20213;-83
2023/01/03 04:28:25;;;;;;;9.57;5.23;;;10.10;99.90;;;;;;5017621;28;20206;-86
2023/01/03 04:31:01;;;;;;;8.83;5.23;;;10.10;99.90;;;;;;5033049;28;20266;-85
2023/01/03 04:33:29;;;;;;;12.87;5.77;;;10.20;99.90;;;;;;5029827;28;20295;-87
2023/01/03 04:35:57;;;;;;;9.97;5.77;;;10.20;99.90;;;;;;5029919;28;20196;-84
2023/01/03 04:38:24;;;;;;;11.07;5.70;;;10.10;99.90;;;;;;4999334;28;20283;-87
2023/01/03 04:40:51;;;;;;;9.03;5.50;;;10.20;99.90;;;;;;5029231;28;20672;-81
2023/01/03 04:46:04;;;;;;;9.83;5.40;;;10.10;99.90;;;;;;5046650;28;20218;-90
2023/01/03 04:48:32;;;;;;;12.83;5.40;;;10.00;99.90;;;;;;5035073;28;20200;-88
2023/01/03 04:51:00;;;;;;;11.67;5.80;;;10.00;99.90;;;;;;5033331;28;20199;-89
2023/01/03 04:53:27;;;;;;;10.20;5.07;;;10.00;99.90;;;;;;5033687;28;20685;-88
2023/01/03 04:55:58;;;;;;;10.03;5.37;;;9.90;99.90;;;;;;5033354;28;20192;-87
2023/01/03 04:58:25;;;;;;;13.23;5.30;;;9.90;99.90;;;;;;5016764;28;20199;-88
2023/01/03 05:01:02;;;;;;;10.30;5.27;;;9.80;99.90;;;;;;5032513;28;20205;-89
2023/01/03 05:03:30;;;;;;;8.27;4.83;;;9.80;99.90;;;;;;5033492;28;20203;-88
2023/01/03 05:06:02;;;;;;;9.93;5.23;;;9.70;99.90;;;;;;5012648;28;20230;-88
2023/01/03 05:08:30;;;;;;;9.30;5.27;;;9.70;99.90;;;;;;5014641;28;20271;-91
2023/01/03 05:10:57;;;;;;;8.90;5.03;;;9.70;99.90;;;;;;5029435;28;20268;-90
2023/01/03 05:13:24;;;;;;;11.10;5.37;;;9.70;99.90;;;;;;5014491;28;20580;-83
2023/01/03 05:15:51;;;;;;;10.77;5.43;;;9.60;99.90;;;;;;5013518;28;20208;-91
2023/01/03 05:18:18;;;;;;;9.00;5.80;;;9.60;99.90;;;;;;5013950;28;20262;-91
2023/01/03 05:26:19;;;;;;;11.87;5.50;;;9.40;99.90;;;;;;5012893;28;20200;-87
2023/01/03 05:28:50;;;;;;;9.73;5.17;;;9.30;99.90;;;;;;5013825;28;20204;-91
2023/01/03 05:31:19;;;;;;;9.73;5.37;;;9.30;99.90;;;;;;5028728;28;20227;-89
2023/01/03 05:33:46;;;;;;;8.40;4.63;;;9.20;99.90;;;;;;5013314;28;20298;-86
2023/01/03 05:36:13;;;;;;;7.77;4.60;;;9.20;99.90;;;;;;5012216;28;20200;-82
2023/01/03 05:38:42;;;;;;;9.60;4.50;;;9.20;99.90;;;;;;5028117;28;20330;-81
2023/01/03 05:41:11;;;;;;;6.87;4.10;;;9.10;99.90;;;;;;5014364;28;20246;-88
2023/01/03 05:43:38;;;;;;;6.90;3.63;;;9.20;99.90;;;;;;5016131;28;20196;-84
2023/01/03 05:46:05;;;;;;;7.10;3.23;;;9.20;99.90;;;;;;4999923;28;20233;-90
2023/01/03 05:48:33;;;;;;;7.83;3.37;;;9.00;99.90;;;;;;5016317;28;20291;-90
2023/01/03 05:51:00;;;;;;;7.33;3.40;;;9.00;99.90;;;;;;5032790;28;20196;-91
2023/01/03 05:53:27;;;;;;;6.20;3.50;;;9.00;99.90;;;;;;5016086;28;20219;-81
2023/01/03 05:55:54;;;;;;;8.57;4.03;;;8.90;99.90;;;;;;5015817;28;20202;-85
2023/01/03 05:58:22;;;;;;;7.00;3.97;;;8.90;99.90;;;;;;5036064;28;20203;-83
2023/01/03 06:00:49;;;;;;;7.80;4.20;;;8.80;99.90;;;;;;5052697;28;20199;-84
2023/01/03 06:03:16;;;;;;;5.97;3.20;;;8.80;99.90;;;;;;5037391;28;20205;-85
2023/01/03 06:05:43;;;;;;;6.33;3.13;;;8.80;99.90;;;;;;5026136;28;20214;-83
2023/01/03 06:08:16;;;;;;;7.27;3.40;;;8.70;99.90;;;;;;5018267;28;20611;-82
2023/01/03 06:10:44;;;;;;;5.87;3.00;;;8.50;99.90;;;;;;5016799;28;20554;-87
2023/01/03 06:13:11;;;;;;;5.83;3.00;;;8.50;99.90;;;;;;5017170;28;20222;-85
2023/01/03 06:15:40;;;;;;;5.33;2.90;;;8.50;99.90;;;;;;5015571;28;20207;-83
2023/01/03 06:18:07;;;;;;;6.50;3.37;;;8.40;99.90;;;;;;5034949;28;20201;-90
2023/01/03 06:20:34;;;;;;;3.90;2.33;;;8.40;99.90;;;;;;5035658;28;20199;-80
2023/01/03 06:23:01;;;;;;;4.67;2.57;;;8.30;99.90;;;;;;5035216;28;20211;-81
2023/01/03 06:25:28;;;;;;;3.60;2.10;;;8.30;99.90;;;;;;5034821;28;20199;-82
2023/01/03 06:27:55;;;;;;;4.23;2.10;;;8.20;99.90;;;;;;5030376;28;20295;-87
2023/01/03 06:30:22;;;;;;;4.63;2.20;;;8.20;99.90;;;;;;5031404;28;20192;-88
2023/01/03 06:32:49;;;;;;;5.07;2.40;;;8.20;99.90;;;;;;5035773;28;20227;-90
2023/01/03 06:35:16;;;;;;;5.20;2.00;;;8.10;99.90;;;;;;5035129;28;20286;-86
2023/01/03 06:37:43;;;;;;;2.90;1.87;;;8.10;99.90;;;;;;5035216;28;20256;-90
2023/01/03 06:40:11;;;;;;;3.33;2.20;;;8.20;99.90;;;;;;5017168;28;20619;-83
2023/01/03 06:42:41;;;;;;;2.50;1.67;;;8.20;99.90;;;;;;5012848;28;20218;-83
2023/01/03 06:53:38;;;;;;;4.53;1.77;;;8.30;99.90;;;;;;5035715;28;20731;-88
2023/01/03 06:56:06;;;;;;;3.57;1.70;;;8.30;99.90;;;;;;5019699;28;20195;-89
2023/01/03 06:58:41;;;;;;;2.80;1.50;;;8.20;99.90;;;;;;5027027;28;20223;-93
2023/01/03 07:01:08;;;;;;;3.73;2.07;;;8.30;99.90;;;;;;5051282;28;20271;-84
2023/01/03 07:03:36;;;;;;;6.40;1.90;;;8.40;99.90;;;;;;5035847;28;20244;-91
2023/01/03 07:06:03;;;;;;;2.97;1.83;;;8.50;99.90;;;;;;5034741;28;20191;-82
2023/01/03 07:08:30;;;;;;;3.43;2.00;;;8.40;99.90;;;;;;5020410;28;20343;-81
2023/01/03 07:10:57;;;;;;;4.57;2.20;;;8.40;99.90;;;;;;5013587;28;20261;-83
2023/01/03 07:16:14;;;;;;;5.33;2.40;;;8.50;99.90;;;;;;5031080;28;20291;-85
2023/01/03 07:18:42;;;;;;;4.80;2.67;;;8.40;99.90;;;;;;5015608;28;20275;-82
2023/01/03 07:21:16;;;;;;;4.57;2.27;;;8.40;99.90;;;;;;5015898;28;20191;-84
2023/01/03 07:23:43;;;;;;;5.73;2.30;;;8.40;99.90;;;;;;5014083;28;20200;-82
2023/01/03 07:26:10;;;;;;;4.53;2.37;;;8.50;99.90;;;;;;5015811;28;20196;-86
2023/01/03 07:28:37;;;;;;;6.00;2.57;;;8.50;99.90;;;;;;5014374;28;20236;-83
2023/01/03 07:31:06;;;;;;;5.53;2.40;;;8.50;99.90;;;;;;5014659;28;20291;-84
2023/01/03 07:33:33;;;;;;;4.60;2.60;;;8.50;99.90;;;;;;5014932;28;20751;-84
2023/01/03 07:36:05;;;;;;;5.10;2.47;;;8.50;99.90;;;;;;5013761;28;20206;-81
2023/01/03 07:38:39;;;;;;;4.17;2.63;;;8.50;99.90;;;;;;5025305;28;20260;-80
2023/01/03 07:41:09;;;;;;;5.73;2.50;;;8.60;99.90;;;;;;5036763;28;20189;-83
2023/01/03 07:43:38;;;;;;;4.77;2.53;;;8.50;99.90;;;;;;5054791;28;20190;-83
2023/01/03 07:46:14;;;;;;;4.40;2.53;;;8.60;99.90;;;;;;5036778;28;20205;-85
2023/01/03 07:48:42;;;;;;;5.77;2.80;;;8.60;99.90;;;;;;5053320;28;20332;-82
2023/01/03 07:51:12;;;;;;;5.50;2.90;;;8.60;99.90;;;;;;5037074;28;20195;-84
2023/01/03 07:53:40;;;;;;;7.93;3.23;;;8.70;99.90;;;;;;5037535;28;20564;-84
2023/01/03 07:56:10;;;;;;;4.40;2.87;;;8.70;99.90;;;;;;5036753;28;20193;-84
2023/01/03 07:58:43;;;;;;;6.33;3.30;;;8.70;99.90;;;;;;5036791;28;20206;-82
2023/01/03 08:01:22;;;;;;;5.53;3.40;;;8.80;99.90;;;;;;5036868;28;20206;-81
2023/01/03 08:03:49;;;;;;;6.07;3.40;;;8.70;99.90;;;;;;5035809;28;20285;-83
2023/01/03 08:06:20;;;;;;;6.80;3.77;;;8.80;99.90;;;;;;5054286;28;20193;-83
2023/01/03 08:13:16;;;;;;;5.27;3.37;;;8.90;99.90;;;;;;5053737;28;20671;-83
2023/01/03 08:14:22;;;;;;;6.07;3.80;;;8.90;99.90;;;;;;5036580;28;20742;-82
2023/01/03 08:16:53;;;;;;;8.10;4.53;;;8.90;99.90;;;;;;5053078;28;20240;-83
2023/01/03 08:19:21;;;;;;;6.83;4.70;;;9.00;99.90;;;;;;5054149;28;20217;-79
2023/01/03 08:21:48;;;;;;;8.87;4.97;;;9.00;99.90;;;;;;5036443;28;20226;-81
2023/01/03 08:24:15;;;;;;;10.57;5.23;;;9.10;99.90;;;;;;5035461;28;20207;-80
2023/01/03 08:26:42;;;;;;;8.40;5.20;;;9.10;99.90;;;;;;5035412;28;20766;-84
2023/01/03 08:29:09;;;;;;;8.87;4.90;;;9.10;99.90;;;;;;5036292;28;20252;-77
2023/01/03 08:31:40;;;;;;;8.53;5.17;;;9.10;99.90;;;;;;5052399;28;20190;-78
2023/01/03 08:34:11;;;;;;;9.17;5.53;;;9.20;99.90;;;;;;5035469;28;20218;-78
2023/01/03 08:36:57;;;;;;;11.07;5.77;;;9.10;99.90;;;;;;5035610;28;20197;-78
2023/01/03 08:39:29;;;;;;;8.60;5.63;;;9.10;99.90;;;;;;5036059;28;20691;-78
2023/01/03 08:42:02;;;;;;;8.90;6.23;;;9.10;99.90;;;;;;5035680;28;20199;-77
2023/01/03 08:44:29;;;;;;;8.87;5.73;;;9.10;99.90;;;;;;5053243;28;20195;-87
2023/01/03 08:46:59;;;;;;;10.20;6.00;;;9.10;99.90;;;;;;5073680;28;20186;-79
2023/01/03 08:49:26;;;;;;;9.33;5.90;;;9.10;99.90;;;;;;5055587;28;20774;-87
2023/01/03 08:51:53;;;;;;;10.93;6.80;;;9.20;99.90;;;;;;5055619;28;20293;-87
2023/01/03 08:54:20;;;;;;;11.57;6.53;;;9.10;99.90;;;;;;5043100;28;20254;-87
2023/01/03 08:56:47;;;;;;;11.90;6.60;;;9.10;99.90;;;;;;5019632;28;20197;-87
2023/01/03 08:59:13;;;;;;;9.80;6.20;;;9.10;99.90;;;;;;5035567;28;20289;-78
2023/01/03 09:01:40;;;;;;;9.30;6.20;;;9.10;99.90;;;;;;5035864;28;20190;-81
2023/01/03 09:04:08;;;;;;;9.03;5.47;;;9.10;99.90;;;;;;5057610;28;20660;-83
2023/01/03 09:06:35;;;;;;;8.83;5.77;;;9.30;99.90;;;;;;5055639;28;20213;-87
2023/01/03 09:09:07;;;;;;;8.73;5.17;;;9.30;99.90;;;;;;5056224;28;20623;-84
2023/01/03 09:11:35;;;;;;;7.57;4.70;;;9.30;99.90;;;;;;5055656;28;20228;-86
2023/01/03 09:14:02;;;;;;;6.73;4.10;;;9.50;99.90;;;;;;5039456;28;20745;-87
2023/01/03 09:16:29;;;;;;;7.13;4.23;;;9.40;99.90;;;;;;5076531;28;20171;-88
2023/01/03 09:18:56;;;;;;;7.50;4.10;;;9.40;99.90;;;;;;5059741;28;20276;-87
2023/01/03 09:21:24;;;;;;;7.03;3.50;;;9.40;99.90;;;;;;5048033;28;20195;-85
2023/01/03 09:23:51;;;;;;;5.37;3.10;;;9.40;99.90;;;;;;5069010;28;20205;-86
2023/01/03 09:26:17;;;;;;;6.27;3.20;;;9.20;99.90;;;;;;5059322;28;20194;-81
2023/01/03 09:28:44;;;;;;;5.17;2.73;;;9.30;99.90;;;;;;5059259;28;20259;-79
2023/01/03 09:31:13;;;;;;;3.97;2.67;;;9.30;99.90;;;;;;5054022;28;20190;-78
2023/01/03 09:33:40;;;;;;;6.60;2.83;;;9.20;99.90;;;;;;5060404;28;20308;-78
2023/01/03 09:36:08;;;;;;;4.33;2.90;;;9.20;99.90;;;;;;5039628;28;20201;-75
2023/01/03 09:38:35;;;;;;;3.97;2.10;;;9.20;99.90;;;;;;5050321;28;20233;-76
2023/01/03 09:41:05;;;;;;;2.90;2.30;;;9.10;99.90;;;;;;5048726;28;20187;-76
2023/01/03 09:43:41;;;;;;;4.47;2.20;;;9.10;99.90;;;;;;5055037;28;20194;-84
2023/01/03 09:46:17;;;;;;;3.93;1.90;;;9.20;99.90;;;;;;5048987;28;20321;-79
2023/01/03 09:48:45;;;;;;;3.37;1.70;;;9.20;99.90;;;;;;5050469;28;20228;-81
2023/01/03 10:03:44;;;;;;;4.00;1.73;;;9.20;99.90;;;;;;5070742;28;20535;-86
2023/01/03 10:06:31;;;;;;;2.77;1.83;;;9.20;99.90;;;;;;5059367;28;20289;-81
2023/01/03 10:09:24;;;;;;;5.53;1.93;;;9.20;99.90;;;;;;5050664;28;20216;-81
2023/01/03 10:12:21;;;;;;;4.13;1.67;;;9.10;99.90;;;;;;5044297;28;20289;-84
2023/01/03 10:15:03;;;;;;;3.87;1.73;;;9.10;99.90;;;;;;5038056;28;20250;-84
2023/01/03 10:18:08;;;;;;;3.30;1.67;;;9.10;99.90;;;;;;5055623;28;20305;-85
2023/01/03 10:20:40;;;;;;;5.03;1.80;;;9.10;99.90;;;;;;5039574;28;20282;-82
2023/01/03 10:23:09;;;;;;;2.70;1.77;;;9.10;99.90;;;;;;5042176;28;20245;-81
2023/01/03 10:25:44;;;;;;;4.53;1.67;;;9.10;99.90;;;;;;5062631;28;20289;-77
2023/01/03 10:28:23;;;;;;;3.67;1.67;;;9.10;99.90;;;;;;5062423;28;20197;-79
2023/01/03 10:31:08;;;;;;;4.50;1.80;;;9.10;99.90;;;;;;5047615;28;20186;-77
2023/01/03 10:33:46;;;;;;;4.50;1.70;;;9.20;99.90;;;;;;5064727;28;20230;-74
2023/01/03 10:36:15;;;;;;;4.23;1.37;;;9.10;99.90;;;;;;5062935;28;20199;-81
2023/01/03 10:38:43;;;;;;;5.27;1.63;;;9.00;99.90;;;;;;5052528;28;20234;-79
2023/01/03 10:41:32;;;;;;;4.90;1.50;;;9.00;99.90;;;;;;5061444;28;20553;-79
2023/01/03 10:44:02;;;;;;;5.83;1.40;;;9.10;99.90;;;;;;5062229;28;20685;-77
2023/01/03 10:46:30;;;;;;;4.17;1.50;;;9.30;99.90;;;;;;5048793;28;20292;-78
2023/01/03 10:49:17;;;;;;;2.27;1.20;;;9.20;99.90;;;;;;5046037;28;20186;-80
2023/01/03 10:52:00;;;;;;;2.97;1.57;;;9.20;99.90;;;;;;5053431;28;20650;-81
2023/01/03 10:54:42;;;;;;;2.77;1.10;;;9.20;99.90;;;;;;5062867;28;20217;-76
2023/01/03 10:57:42;;;;;;;3.23;1.30;;;9.10;99.90;;;;;;5061646;28;20186;-76
2023/01/03 11:00:25;;;;;;;2.97;1.40;;;8.80;99.90;;;;;;5052441;28;20201;-80
2023/01/03 11:02:54;;;;;;;3.20;1.30;;;8.70;99.90;;;;;;5038256;28;20576;-80
2023/01/03 11:05:24;;;;;;;2.87;1.30;;;8.70;99.90;;;;;;5056060;28;20201;-81
2023/01/03 11:08:01;;;;;;;4.00;1.43;;;8.60;99.90;;;;;;5047811;28;20678;-79
2023/01/03 11:10:53;;;;;;;3.63;1.50;;;8.60;99.90;;;;;;5043929;28;20245;-75
2023/01/03 11:13:25;;;;;;;4.40;1.40;;;8.60;99.90;;;;;;5057637;28;20222;-77
2023/01/03 11:15:58;;;;;;;3.00;1.50;;;8.70;99.90;;;;;;5054055;28;20360;-78
2023/01/03 11:18:27;;;;;;;4.33;1.70;;;8.80;99.90;;;;;;5061573;28;20197;-77
2023/01/03 11:21:17;;;;;;;4.23;1.67;;;9.00;99.90;;;;;;5044533;28;20209;-76
2023/01/03 11:24:07;;;;;;;3.20;1.37;;;8.90;99.90;;;;;;5056585;28;20638;-73
2023/01/03 11:27:01;;;;;;;2.47;1.43;;;9.00;99.90;;;;;;5054053;28;20210;-80
2023/01/03 11:30:06;;;;;;;5.23;1.50;;;8.90;99.90;;;;;;5033910;28;20206;-77
2023/01/03 11:32:57;;;;;;;6.73;1.43;;;8.90;99.90;;;;;;5054468;28;20217;-80
2023/01/03 11:35:33;;;;;;;2.77;1.70;;;8.70;99.90;;;;;;5036221;28;20219;-79
2023/01/03 11:38:05;;;;;;;2.73;1.47;;;8.60;99.90;;;;;;5036183;28;20208;-91
2023/01/03 11:41:01;;;;;;;4.40;1.97;;;8.50;99.90;;;;;;5067522;28;20211;-76
2023/01/03 11:43:48;;;;;;;4.87;1.70;;;8.60;99.90;;;;;;4993885;28;20195;-76
2023/01/03 11:46:21;;;;;;;6.47;1.90;;;8.80;99.90;;;;;;5001635;28;20233;-78
2023/01/03 11:48:56;;;;;;;4.10;2.00;;;9.00;99.90;;;;;;5000770;28;20195;-77
2023/01/03 11:51:35;;;;;;;3.03;1.70;;;9.30;99.90;;;;;;4990704;28;20210;-83
2023/01/03 11:54:06;;;;;;;4.23;1.77;;;9.70;99.90;;;;;;4992687;28;20311;-80
2023/01/03 11:56:39;;;;;;;4.87;1.80;;;10.00;99.90;;;;;;4974965;28;20697;-80
2023/01/03 11:59:44;;;;;;;3.63;1.73;;;10.30;99.90;;;;;;4998760;28;20290;-79
2023/01/03 12:02:37;;;;;;;3.77;1.70;;;10.30;99.90;;;;;;4937773;29;20602;-82
2023/01/03 12:05:25;;;;;;;5.07;1.90;;;10.10;99.90;;;;;;4937747;29;20613;-79
2023/01/03 12:08:07;;;;;;;4.30;1.67;;;10.00;99.90;;;;;;4946575;28;20210;-84
2023/01/03 12:10:58;;;;;;;4.93;1.90;;;9.80;99.90;;;;;;4969568;28;20190;-74
2023/01/03 12:13:30;;;;;;;4.93;1.70;;;9.50;99.90;;;;;;4971342;28;20206;-79
2023/01/03 12:16:09;;;;;;;2.80;1.73;;;9.20;99.90;;;;;;4979606;28;20244;-76
2023/01/03 12:18:59;;;;;;;3.77;2.00;;;9.20;99.90;;;;;;4956368;28;20208;-77
2023/01/03 12:21:36;;;;;;;3.90;1.97;;;9.00;99.90;;;;;;4972855;28;20198;-79
2023/01/03 12:24:15;;;;;;;4.27;1.87;;;8.60;99.90;;;;;;4972656;28;20203;-80
2023/01/03 12:26:50;;;;;;;3.53;1.93;;;8.70;99.90;;;;;;4975036;28;20250;-83
2023/01/03 12:29:23;;;;;;;4.33;1.60;;;8.50;99.90;;;;;;4973718;28;20201;-82
2023/01/03 12:32:18;;;;;;;3.07;1.60;;;8.30;99.90;;;;;;4978393;28;20298;-86
2023/01/03 12:35:06;;;;;;;4.57;1.57;;;8.10;99.90;;;;;;4927220;29;20337;-79
2023/01/03 12:37:37;;;;;;;2.97;1.60;;;8.10;99.90;;;;;;4944816;29;20599;-80
2023/01/03 12:40:28;;;;;;;3.63;1.60;;;7.90;99.90;;;;;;4968492;28;20232;-80
2023/01/03 12:43:31;;;;;;;7.20;1.90;;;7.80;99.90;;;;;;4985905;28;20245;-76
2023/01/03 12:46:03;;;;;;;3.70;2.00;;;7.70;99.90;;;;;;4933680;29;20557;-88
2023/01/03 12:48:57;;;;;;;3.07;1.80;;;7.70;99.90;;;;;;4934616;29;20368;-75
2023/01/03 12:51:25;;;;;;;3.13;1.90;;;7.50;99.90;;;;;;4948831;28;20194;-80
2023/01/03 12:54:18;;;;;;;5.07;1.80;;;7.50;99.90;;;;;;4942632;29;20311;-83
2023/01/03 12:57:09;;;;;;;4.23;1.80;;;7.40;99.90;;;;;;4943478;29;20214;-81
2023/01/03 12:59:42;;;;;;;4.40;1.80;;;7.50;99.90;;;;;;4945026;29;20679;-81
2023/01/03 13:02:23;;;;;;;6.87;2.00;;;7.70;99.90;;;;;;4929079;29;20234;-82
2023/01/03 13:05:09;;;;;;;;;;;;;;;;;;;;;
2023/01/03 13:08:18;;;;;;;6.27;2.03;;;7.90;99.90;;;;;;4935930;29;20241;-77
2023/01/03 13:11:03;;;;;;;5.00;2.20;;;8.10;99.90;;;;;;4944990;28;20198;-80
2023/01/03 13:13:47;;;;;;;3.40;2.00;;;8.30;99.90;;;;;;4976381;28;20200;-80
2023/01/03 13:17:17;;;;;;;4.50;2.23;;;8.50;99.90;;;;;;4976247;28;20208;-80
2023/01/03 13:20:27;;;;;;;;;;;;;;;;;;;;;
2023/01/03 13:23:32;;;;;;;5.57;2.20;;;9.00;99.90;;;;;;5049011;28;20523;-82
2023/01/03 13:26:09;;;;;;;4.73;2.27;;;9.10;99.90;;;;;;5054992;28;20667;-77
2023/01/03 13:28:39;;;;;;;4.97;2.30;;;9.20;99.90;;;;;;5054886;28;20197;-78
2023/01/03 13:31:20;;;;;;;4.03;2.20;;;9.30;99.90;;;;;;5054257;28;20182;-82
2023/01/03 13:34:09;;;;;;;4.67;2.27;;;9.40;99.90;;;;;;5056801;28;20214;-78
2023/01/03 13:37:13;;;;;;;4.77;2.40;;;9.30;99.90;;;;;;5071112;28;20185;-80
2023/01/03 13:39:45;;;;;;;4.97;2.40;;;9.00;99.90;;;;;;4952555;28;20264;-80
2023/01/03 13:42:34;;;;;;;6.53;2.27;;;8.90;99.90;;;;;;4956202;28;20655;-78
2023/01/03 13:45:14;;;;;;;6.03;2.17;;;8.80;99.90;;;;;;4957221;28;20197;-79
2023/01/03 13:47:50;;;;;;;3.70;2.10;;;8.60;99.90;;;;;;4952053;28;20276;-82
2023/01/03 13:50:36;;;;;;;5.03;2.30;;;8.30;99.90;;;;;;4956158;28;20268;-74
2023/01/03 13:53:22;;;;;;;7.20;2.47;;;8.10;99.90;;;;;;4946412;28;20201;-77
2023/01/03 13:56:21;;;;;;;6.10;2.23;;;8.00;99.90;;;;;;4962327;28;20221;-74
2023/01/03 13:59:05;;;;;;;4.83;2.40;;;7.70;99.90;;;;;;4939512;28;20190;-75
2023/01/03 14:01:55;;;;;;;5.57;2.67;;;7.70;99.90;;;;;;4965138;28;20574;-79
2023/01/03 14:05:09;;;;;;;4.37;2.10;;;7.60;99.90;;;;;;4935041;28;20548;-75
2023/01/03 14:08:37;;;;;;;6.77;2.50;;;7.50;99.90;;;;;;4890779;29;20347;-76
2023/01/03 14:11:37;;;;;;;4.27;2.33;;;7.50;99.90;;;;;;4859097;29;20292;-75
2023/01/03 14:14:26;;;;;;;8.13;2.50;;;7.40;99.90;;;;;;4842896;29;20225;-78
2023/01/03 14:16:56;;;;;;;4.63;2.57;;;7.30;99.90;;;;;;4924696;29;20229;-78
2023/01/03 14:19:33;;;;;;;5.07;2.80;;;7.10;99.90;;;;;;4908683;29;20243;-77
2023/01/03 14:22:20;;;;;;;6.23;2.87;;;7.00;99.90;;;;;;4920517;29;20213;-78
2023/01/03 14:24:57;;;;;;;11.60;2.93;;;7.00;99.90;;;;;;4889950;29;20201;-79
2023/01/03 14:27:45;;;;;;;5.57;2.90;;;6.90;99.90;;;;;;4926109;29;20253;-79
2023/01/03 14:30:20;;;;;;;6.37;2.77;;;6.90;99.90;;;;;;4907325;29;20224;-79
2023/01/03 14:32:47;;;;;;;4.33;2.90;;;6.80;99.90;;;;;;4908700;29;20305;-85
2023/01/03 14:35:33;;;;;;;5.70;3.10;;;6.80;99.90;;;;;;4920843;29;20260;-84